sensor_id;sensor_type;location;lat;lon;timestamp;P1;durP1;ratioP1;P2;durP2;ratioP2
3949;SDS011;53057;50.988;6.314;2023-05-13T00:01:48;70.33;;;38.13;;
3949;SDS011;53057;50.988;6.314;2023-05-13T00:04:15;64.37;;;40.77;;
3949;SDS011;53057;50.988;6.314;2023-05-13T00:06:42;66.67;;;37.60;;
3949;SDS011;53057;50.988;6.314;2023-05-13T00:09:08;53.80;;;33.80;;
3949;SDS011;53057;50.988;6.314;2023-05-13T00:11:35;71.30;;;36.57;;
3949;SDS011;53057;50.988;6.314;2023-05-13T00:14:01;60.97;;;38.63;;
3949;SDS011;53057;50.988;6.314;2023-05-13T00:16:28;54.07;;;36.50;;
3949;SDS011;53057;50.988;6.314;2023-05-13T00:18:55;55.60;;;35.57;;
3949;SDS011;53057;50.988;6.314;2023-05-13T00:21:21;63.33;;;36.60;;
3949;SDS011;53057;50.988;6.314;2023-05-13T00:23:48;67.20;;;41.73;;
3949;SDS011;53057;50.988;6.314;2023-05-13T00:26:15;68.83;;;44.27;;
3949;SDS011;53057;50.988;6.314;2023-05-13T00:28:43;76.73;;;46.27;;
3949;SDS011;53057;50.988;6.314;2023-05-13T00:31:10;56.53;;;38.80;;
3949;SDS011;53057;50.988;6.314;2023-05-13T00:33:37;62.83;;;39.37;;
3949;SDS011;53057;50.988;6.314;2023-05-13T00:36:03;62.33;;;40.47;;
3949;SDS011;53057;50.988;6.314;2023-05-13T00:38:31;69.50;;;41.83;;
3949;SDS011;53057;50.988;6.314;2023-05-13T00:40:58;72.17;;;45.30;;
3949;SDS011;53057;50.988;6.314;2023-05-13T00:43:24;73.13;;;46.40;;
3949;SDS011;53057;50.988;6.314;2023-05-13T00:45:51;75.17;;;45.77;;
3949;SDS011;53057;50.988;6.314;2023-05-13T00:48:18;71.67;;;46.60;;
3949;SDS011;53057;50.988;6.314;2023-05-13T00:50:44;81.73;;;48.13;;
3949;SDS011;53057;50.988;6.314;2023-05-13T00:53:11;70.70;;;45.17;;
3949;SDS011;53057;50.988;6.314;2023-05-13T00:55:44;71.53;;;43.67;;
3949;SDS011;53057;50.988;6.314;2023-05-13T00:58:11;74.00;;;44.30;;
3949;SDS011;53057;50.988;6.314;2023-05-13T01:00:46;53.60;;;37.17;;
3949;SDS011;53057;50.988;6.314;2023-05-13T01:03:17;80.50;;;48.00;;
3949;SDS011;53057;50.988;6.314;2023-05-13T01:10:58;85.57;;;47.27;;
3949;SDS011;53057;50.988;6.314;2023-05-13T01:13:27;113.03;;;63.47;;
3949;SDS011;53057;50.988;6.314;2023-05-13T01:16:00;142.07;;;79.33;;
3949;SDS011;53057;50.988;6.314;2023-05-13T01:18:35;124.13;;;70.57;;
3949;SDS011;53057;50.988;6.314;2023-05-13T01:21:02;107.70;;;67.67;;
3949;SDS011;53057;50.988;6.314;2023-05-13T01:23:30;104.20;;;61.77;;
3949;SDS011;53057;50.988;6.314;2023-05-13T01:25:58;102.90;;;60.20;;
3949;SDS011;53057;50.988;6.314;2023-05-13T01:28:24;95.93;;;57.70;;
3949;SDS011;53057;50.988;6.314;2023-05-13T01:30:52;88.53;;;54.07;;
3949;SDS011;53057;50.988;6.314;2023-05-13T01:33:21;82.27;;;52.03;;
3949;SDS011;53057;50.988;6.314;2023-05-13T01:35:48;93.87;;;53.17;;
3949;SDS011;53057;50.988;6.314;2023-05-13T01:38:16;80.90;;;49.17;;
3949;SDS011;53057;50.988;6.314;2023-05-13T01:40:47;82.37;;;50.87;;
3949;SDS011;53057;50.988;6.314;2023-05-13T01:43:14;82.70;;;49.70;;
3949;SDS011;53057;50.988;6.314;2023-05-13T01:45:40;77.37;;;49.07;;
3949;SDS011;53057;50.988;6.314;2023-05-13T01:48:07;76.13;;;45.10;;
3949;SDS011;53057;50.988;6.314;2023-05-13T01:50:41;79.30;;;48.97;;
3949;SDS011;53057;50.988;6.314;2023-05-13T01:53:08;77.40;;;46.93;;
3949;SDS011;53057;50.988;6.314;2023-05-13T01:55:36;87.47;;;49.23;;
3949;SDS011;53057;50.988;6.314;2023-05-13T01:58:04;74.03;;;44.43;;
3949;SDS011;53057;50.988;6.314;2023-05-13T02:00:30;76.20;;;44.60;;
3949;SDS011;53057;50.988;6.314;2023-05-13T02:02:57;71.00;;;45.23;;
3949;SDS011;53057;50.988;6.314;2023-05-13T02:05:24;85.10;;;46.43;;
3949;SDS011;53057;50.988;6.314;2023-05-13T02:07:51;80.73;;;46.40;;
3949;SDS011;53057;50.988;6.314;2023-05-13T02:10:18;78.37;;;45.53;;
3949;SDS011;53057;50.988;6.314;2023-05-13T02:12:45;71.57;;;44.03;;
3949;SDS011;53057;50.988;6.314;2023-05-13T02:15:11;70.80;;;42.60;;
3949;SDS011;53057;50.988;6.314;2023-05-13T02:17:39;78.87;;;46.80;;
3949;SDS011;53057;50.988;6.314;2023-05-13T02:20:06;83.90;;;48.57;;
3949;SDS011;53057;50.988;6.314;2023-05-13T02:22:34;73.60;;;44.17;;
3949;SDS011;53057;50.988;6.314;2023-05-13T02:25:02;79.97;;;45.70;;
3949;SDS011;53057;50.988;6.314;2023-05-13T02:27:29;88.57;;;47.70;;
3949;SDS011;53057;50.988;6.314;2023-05-13T02:29:55;81.90;;;48.63;;
3949;SDS011;53057;50.988;6.314;2023-05-13T02:32:22;70.73;;;44.67;;
3949;SDS011;53057;50.988;6.314;2023-05-13T02:34:49;76.97;;;44.53;;
3949;SDS011;53057;50.988;6.314;2023-05-13T02:37:15;72.73;;;46.70;;
3949;SDS011;53057;50.988;6.314;2023-05-13T02:39:51;67.53;;;44.73;;
3949;SDS011;53057;50.988;6.314;2023-05-13T02:42:18;73.87;;;45.80;;
3949;SDS011;53057;50.988;6.314;2023-05-13T02:44:44;72.80;;;45.00;;
3949;SDS011;53057;50.988;6.314;2023-05-13T02:47:12;68.13;;;44.57;;
3949;SDS011;53057;50.988;6.314;2023-05-13T02:49:39;81.17;;;47.77;;
3949;SDS011;53057;50.988;6.314;2023-05-13T02:52:06;79.57;;;47.07;;
3949;SDS011;53057;50.988;6.314;2023-05-13T02:54:34;88.13;;;48.53;;
3949;SDS011;53057;50.988;6.314;2023-05-13T02:57:01;92.37;;;48.43;;
3949;SDS011;53057;50.988;6.314;2023-05-13T02:59:27;84.17;;;49.27;;
3949;SDS011;53057;50.988;6.314;2023-05-13T03:01:54;93.57;;;50.87;;
3949;SDS011;53057;50.988;6.314;2023-05-13T03:04:21;81.50;;;48.80;;
3949;SDS011;53057;50.988;6.314;2023-05-13T03:06:47;98.10;;;50.30;;
3949;SDS011;53057;50.988;6.314;2023-05-13T03:09:14;79.23;;;47.30;;
3949;SDS011;53057;50.988;6.314;2023-05-13T03:11:42;89.47;;;49.53;;
3949;SDS011;53057;50.988;6.314;2023-05-13T03:14:09;83.63;;;46.60;;
3949;SDS011;53057;50.988;6.314;2023-05-13T03:16:36;95.20;;;48.47;;
3949;SDS011;53057;50.988;6.314;2023-05-13T03:19:03;85.40;;;48.97;;
3949;SDS011;53057;50.988;6.314;2023-05-13T03:21:30;83.10;;;48.70;;
3949;SDS011;53057;50.988;6.314;2023-05-13T03:23:57;90.63;;;53.23;;
3949;SDS011;53057;50.988;6.314;2023-05-13T03:26:27;81.67;;;46.87;;
3949;SDS011;53057;50.988;6.314;2023-05-13T03:28:57;92.57;;;49.37;;
3949;SDS011;53057;50.988;6.314;2023-05-13T03:31:24;83.27;;;51.93;;
3949;SDS011;53057;50.988;6.314;2023-05-13T03:33:51;88.07;;;52.77;;
3949;SDS011;53057;50.988;6.314;2023-05-13T03:36:18;94.10;;;48.93;;
3949;SDS011;53057;50.988;6.314;2023-05-13T03:38:44;81.10;;;50.20;;
3949;SDS011;53057;50.988;6.314;2023-05-13T03:41:11;85.63;;;49.90;;
3949;SDS011;53057;50.988;6.314;2023-05-13T03:43:38;80.40;;;48.73;;
3949;SDS011;53057;50.988;6.314;2023-05-13T03:46:08;92.03;;;51.10;;
3949;SDS011;53057;50.988;6.314;2023-05-13T03:48:35;86.80;;;48.20;;
3949;SDS011;53057;50.988;6.314;2023-05-13T03:51:03;74.47;;;46.33;;
3949;SDS011;53057;50.988;6.314;2023-05-13T03:53:29;66.40;;;45.30;;
3949;SDS011;53057;50.988;6.314;2023-05-13T03:55:56;66.97;;;42.20;;
3949;SDS011;53057;50.988;6.314;2023-05-13T03:58:23;70.27;;;42.57;;
3949;SDS011;53057;50.988;6.314;2023-05-13T04:00:50;70.60;;;42.63;;
3949;SDS011;53057;50.988;6.314;2023-05-13T04:03:17;64.20;;;42.90;;
3949;SDS011;53057;50.988;6.314;2023-05-13T04:05:45;63.43;;;40.37;;
3949;SDS011;53057;50.988;6.314;2023-05-13T04:08:11;70.40;;;39.80;;
3949;SDS011;53057;50.988;6.314;2023-05-13T04:10:38;54.97;;;38.53;;
3949;SDS011;53057;50.988;6.314;2023-05-13T04:13:05;59.03;;;37.63;;
3949;SDS011;53057;50.988;6.314;2023-05-13T04:15:32;65.27;;;36.00;;
3949;SDS011;53057;50.988;6.314;2023-05-13T04:17:58;53.63;;;34.63;;
3949;SDS011;53057;50.988;6.314;2023-05-13T04:20:26;50.27;;;37.00;;
3949;SDS011;53057;50.988;6.314;2023-05-13T04:22:54;48.30;;;34.80;;
3949;SDS011;53057;50.988;6.314;2023-05-13T04:25:21;53.30;;;35.40;;
3949;SDS011;53057;50.988;6.314;2023-05-13T04:27:48;46.03;;;33.50;;
3949;SDS011;53057;50.988;6.314;2023-05-13T04:30:22;49.43;;;33.23;;
3949;SDS011;53057;50.988;6.314;2023-05-13T04:32:49;55.57;;;34.33;;
3949;SDS011;53057;50.988;6.314;2023-05-13T04:35:17;49.43;;;33.80;;
3949;SDS011;53057;50.988;6.314;2023-05-13T04:37:46;44.90;;;32.27;;
3949;SDS011;53057;50.988;6.314;2023-05-13T04:40:16;46.43;;;32.90;;
3949;SDS011;53057;50.988;6.314;2023-05-13T04:42:45;45.13;;;30.87;;
3949;SDS011;53057;50.988;6.314;2023-05-13T04:45:11;41.30;;;30.17;;
3949;SDS011;53057;50.988;6.314;2023-05-13T04:47:38;40.43;;;30.50;;
3949;SDS011;53057;50.988;6.314;2023-05-13T04:50:05;39.07;;;28.57;;
3949;SDS011;53057;50.988;6.314;2023-05-13T04:52:32;34.50;;;27.67;;
3949;SDS011;53057;50.988;6.314;2023-05-13T04:54:59;38.43;;;29.07;;
3949;SDS011;53057;50.988;6.314;2023-05-13T04:57:27;36.00;;;25.60;;
3949;SDS011;53057;50.988;6.314;2023-05-13T04:59:54;32.50;;;25.43;;
3949;SDS011;53057;50.988;6.314;2023-05-13T05:02:22;34.13;;;25.30;;
3949;SDS011;53057;50.988;6.314;2023-05-13T05:04:48;33.30;;;24.87;;
3949;SDS011;53057;50.988;6.314;2023-05-13T05:07:16;35.17;;;26.00;;
3949;SDS011;53057;50.988;6.314;2023-05-13T05:09:42;40.20;;;26.10;;
3949;SDS011;53057;50.988;6.314;2023-05-13T05:12:09;37.30;;;25.27;;
3949;SDS011;53057;50.988;6.314;2023-05-13T05:14:39;36.93;;;25.07;;
3949;SDS011;53057;50.988;6.314;2023-05-13T05:17:06;34.17;;;24.43;;
3949;SDS011;53057;50.988;6.314;2023-05-13T05:19:33;35.80;;;24.27;;
3949;SDS011;53057;50.988;6.314;2023-05-13T05:22:00;30.63;;;23.20;;
3949;SDS011;53057;50.988;6.314;2023-05-13T05:24:27;28.83;;;22.37;;
3949;SDS011;53057;50.988;6.314;2023-05-13T05:26:54;32.30;;;22.93;;
3949;SDS011;53057;50.988;6.314;2023-05-13T05:29:22;33.00;;;20.87;;
3949;SDS011;53057;50.988;6.314;2023-05-13T05:31:49;27.57;;;20.27;;
3949;SDS011;53057;50.988;6.314;2023-05-13T05:34:15;31.10;;;18.67;;
3949;SDS011;53057;50.988;6.314;2023-05-13T05:36:43;27.20;;;17.57;;
3949;SDS011;53057;50.988;6.314;2023-05-13T05:39:11;24.43;;;18.17;;
3949;SDS011;53057;50.988;6.314;2023-05-13T05:41:38;28.17;;;18.20;;
3949;SDS011;53057;50.988;6.314;2023-05-13T05:44:05;22.23;;;17.53;;
3949;SDS011;53057;50.988;6.314;2023-05-13T05:46:32;23.93;;;17.83;;
3949;SDS011;53057;50.988;6.314;2023-05-13T05:48:59;25.77;;;17.77;;
3949;SDS011;53057;50.988;6.314;2023-05-13T05:51:31;22.63;;;17.27;;
3949;SDS011;53057;50.988;6.314;2023-05-13T05:54:00;27.73;;;18.10;;
3949;SDS011;53057;50.988;6.314;2023-05-13T05:56:26;23.37;;;18.90;;
3949;SDS011;53057;50.988;6.314;2023-05-13T05:58:53;27.23;;;18.70;;
3949;SDS011;53057;50.988;6.314;2023-05-13T06:01:20;26.37;;;19.40;;
3949;SDS011;53057;50.988;6.314;2023-05-13T06:03:46;22.57;;;18.20;;
3949;SDS011;53057;50.988;6.314;2023-05-13T06:06:15;22.07;;;18.97;;
3949;SDS011;53057;50.988;6.314;2023-05-13T06:08:43;27.57;;;19.77;;
3949;SDS011;53057;50.988;6.314;2023-05-13T06:11:09;22.23;;;17.83;;
3949;SDS011;53057;50.988;6.314;2023-05-13T06:13:36;24.70;;;18.43;;
3949;SDS011;53057;50.988;6.314;2023-05-13T06:16:04;25.53;;;18.53;;
3949;SDS011;53057;50.988;6.314;2023-05-13T06:18:31;24.13;;;18.53;;
3949;SDS011;53057;50.988;6.314;2023-05-13T06:20:57;24.00;;;18.70;;
3949;SDS011;53057;50.988;6.314;2023-05-13T06:23:24;28.60;;;19.53;;
3949;SDS011;53057;50.988;6.314;2023-05-13T06:25:51;28.50;;;20.63;;
3949;SDS011;53057;50.988;6.314;2023-05-13T06:28:18;29.33;;;17.50;;
3949;SDS011;53057;50.988;6.314;2023-05-13T06:30:44;24.10;;;18.47;;
3949;SDS011;53057;50.988;6.314;2023-05-13T06:33:11;26.40;;;16.27;;
3949;SDS011;53057;50.988;6.314;2023-05-13T06:35:38;27.53;;;16.27;;
3949;SDS011;53057;50.988;6.314;2023-05-13T06:38:05;19.77;;;16.33;;
3949;SDS011;53057;50.988;6.314;2023-05-13T06:40:33;24.60;;;15.90;;
3949;SDS011;53057;50.988;6.314;2023-05-13T06:43:00;16.97;;;14.83;;
3949;SDS011;53057;50.988;6.314;2023-05-13T06:45:29;19.67;;;15.37;;
3949;SDS011;53057;50.988;6.314;2023-05-13T06:47:56;22.47;;;17.40;;
3949;SDS011;53057;50.988;6.314;2023-05-13T06:50:23;17.67;;;15.30;;
3949;SDS011;53057;50.988;6.314;2023-05-13T06:52:50;21.00;;;16.87;;
3949;SDS011;53057;50.988;6.314;2023-05-13T06:55:17;27.23;;;16.17;;
3949;SDS011;53057;50.988;6.314;2023-05-13T06:57:44;26.53;;;17.70;;
3949;SDS011;53057;50.988;6.314;2023-05-13T07:00:12;27.10;;;18.00;;
3949;SDS011;53057;50.988;6.314;2023-05-13T07:02:39;20.10;;;16.83;;
3949;SDS011;53057;50.988;6.314;2023-05-13T07:05:07;23.97;;;17.67;;
3949;SDS011;53057;50.988;6.314;2023-05-13T07:07:36;24.37;;;17.83;;
3949;SDS011;53057;50.988;6.314;2023-05-13T07:10:03;23.20;;;17.83;;
3949;SDS011;53057;50.988;6.314;2023-05-13T07:12:30;17.80;;;15.60;;
3949;SDS011;53057;50.988;6.314;2023-05-13T07:14:56;18.17;;;15.17;;
3949;SDS011;53057;50.988;6.314;2023-05-13T07:17:23;19.07;;;16.47;;
3949;SDS011;53057;50.988;6.314;2023-05-13T07:19:50;21.33;;;17.13;;
3949;SDS011;53057;50.988;6.314;2023-05-13T07:22:17;18.63;;;15.50;;
3949;SDS011;53057;50.988;6.314;2023-05-13T07:24:43;19.10;;;15.80;;
3949;SDS011;53057;50.988;6.314;2023-05-13T07:27:10;16.97;;;14.10;;
3949;SDS011;53057;50.988;6.314;2023-05-13T07:29:37;21.03;;;14.23;;
3949;SDS011;53057;50.988;6.314;2023-05-13T07:32:04;17.10;;;14.10;;
3949;SDS011;53057;50.988;6.314;2023-05-13T07:34:30;17.80;;;14.00;;
3949;SDS011;53057;50.988;6.314;2023-05-13T07:36:57;18.03;;;13.43;;
3949;SDS011;53057;50.988;6.314;2023-05-13T07:39:25;17.03;;;12.27;;
3949;SDS011;53057;50.988;6.314;2023-05-13T07:41:52;14.57;;;12.77;;
3949;SDS011;53057;50.988;6.314;2023-05-13T07:44:20;14.30;;;12.70;;
3949;SDS011;53057;50.988;6.314;2023-05-13T07:46:47;15.93;;;13.93;;
3949;SDS011;53057;50.988;6.314;2023-05-13T07:49:14;16.50;;;13.40;;
3949;SDS011;53057;50.988;6.314;2023-05-13T07:51:40;17.90;;;12.20;;
3949;SDS011;53057;50.988;6.314;2023-05-13T07:54:07;14.17;;;11.90;;
3949;SDS011;53057;50.988;6.314;2023-05-13T07:56:34;18.33;;;14.67;;
3949;SDS011;53057;50.988;6.314;2023-05-13T07:59:01;17.27;;;12.27;;
3949;SDS011;53057;50.988;6.314;2023-05-13T08:01:27;15.30;;;12.40;;
3949;SDS011;53057;50.988;6.314;2023-05-13T08:03:54;13.27;;;11.87;;
3949;SDS011;53057;50.988;6.314;2023-05-13T08:06:21;15.80;;;11.80;;
3949;SDS011;53057;50.988;6.314;2023-05-13T08:08:48;15.53;;;12.60;;
3949;SDS011;53057;50.988;6.314;2023-05-13T08:11:14;12.57;;;11.27;;
3949;SDS011;53057;50.988;6.314;2023-05-13T08:13:41;13.73;;;11.63;;
3949;SDS011;53057;50.988;6.314;2023-05-13T08:16:07;14.90;;;12.17;;
3949;SDS011;53057;50.988;6.314;2023-05-13T08:18:34;16.50;;;12.10;;
3949;SDS011;53057;50.988;6.314;2023-05-13T08:21:01;16.30;;;13.27;;
3949;SDS011;53057;50.988;6.314;2023-05-13T08:23:28;12.93;;;11.47;;
3949;SDS011;53057;50.988;6.314;2023-05-13T08:26:10;15.00;;;12.50;;
3949;SDS011;53057;50.988;6.314;2023-05-13T08:28:37;13.83;;;12.17;;
3949;SDS011;53057;50.988;6.314;2023-05-13T08:31:04;17.77;;;10.87;;
3949;SDS011;53057;50.988;6.314;2023-05-13T08:33:30;21.00;;;12.23;;
3949;SDS011;53057;50.988;6.314;2023-05-13T08:35:58;12.37;;;11.07;;
3949;SDS011;53057;50.988;6.314;2023-05-13T08:38:25;13.40;;;12.10;;
3949;SDS011;53057;50.988;6.314;2023-05-13T08:40:52;13.73;;;11.80;;
3949;SDS011;53057;50.988;6.314;2023-05-13T08:43:18;11.87;;;10.67;;
3949;SDS011;53057;50.988;6.314;2023-05-13T08:45:46;12.83;;;10.40;;
3949;SDS011;53057;50.988;6.314;2023-05-13T08:48:13;12.73;;;11.43;;
3949;SDS011;53057;50.988;6.314;2023-05-13T08:50:40;11.33;;;9.93;;
3949;SDS011;53057;50.988;6.314;2023-05-13T08:53:09;19.70;;;10.47;;
3949;SDS011;53057;50.988;6.314;2023-05-13T08:55:37;11.93;;;9.70;;
3949;SDS011;53057;50.988;6.314;2023-05-13T08:58:04;14.53;;;11.17;;
3949;SDS011;53057;50.988;6.314;2023-05-13T09:00:31;16.40;;;9.90;;
3949;SDS011;53057;50.988;6.314;2023-05-13T09:02:59;16.80;;;11.03;;
3949;SDS011;53057;50.988;6.314;2023-05-13T09:05:26;14.90;;;10.97;;
3949;SDS011;53057;50.988;6.314;2023-05-13T09:07:53;14.30;;;11.13;;
3949;SDS011;53057;50.988;6.314;2023-05-13T09:10:20;12.40;;;11.10;;
3949;SDS011;53057;50.988;6.314;2023-05-13T09:12:53;20.67;;;10.63;;
3949;SDS011;53057;50.988;6.314;2023-05-13T09:15:21;11.87;;;10.40;;
3949;SDS011;53057;50.988;6.314;2023-05-13T09:17:57;13.73;;;11.80;;
3949;SDS011;53057;50.988;6.314;2023-05-13T09:20:24;12.53;;;11.07;;
3949;SDS011;53057;50.988;6.314;2023-05-13T09:25:18;13.97;;;10.53;;
3949;SDS011;53057;50.988;6.314;2023-05-13T09:27:47;14.87;;;10.47;;
3949;SDS011;53057;50.988;6.314;2023-05-13T09:30:13;15.97;;;13.10;;
3949;SDS011;53057;50.988;6.314;2023-05-13T09:32:40;11.17;;;10.07;;
3949;SDS011;53057;50.988;6.314;2023-05-13T09:35:12;12.73;;;11.33;;
3949;SDS011;53057;50.988;6.314;2023-05-13T09:37:45;13.17;;;11.37;;
3949;SDS011;53057;50.988;6.314;2023-05-13T09:40:13;11.07;;;9.50;;
3949;SDS011;53057;50.988;6.314;2023-05-13T09:42:43;10.30;;;8.90;;
3949;SDS011;53057;50.988;6.314;2023-05-13T09:45:11;11.53;;;10.07;;
3949;SDS011;53057;50.988;6.314;2023-05-13T09:47:38;14.30;;;10.57;;
3949;SDS011;53057;50.988;6.314;2023-05-13T09:50:06;12.40;;;10.63;;
3949;SDS011;53057;50.988;6.314;2023-05-13T09:52:34;14.07;;;11.03;;
3949;SDS011;53057;50.988;6.314;2023-05-13T09:55:01;18.50;;;11.67;;
3949;SDS011;53057;50.988;6.314;2023-05-13T09:57:30;12.53;;;11.23;;
3949;SDS011;53057;50.988;6.314;2023-05-13T09:59:57;13.00;;;11.40;;
3949;SDS011;53057;50.988;6.314;2023-05-13T10:02:24;15.37;;;13.10;;
3949;SDS011;53057;50.988;6.314;2023-05-13T10:04:52;13.63;;;12.07;;
3949;SDS011;53057;50.988;6.314;2023-05-13T10:07:20;12.40;;;10.43;;
3949;SDS011;53057;50.988;6.314;2023-05-13T10:09:54;19.13;;;12.00;;
3949;SDS011;53057;50.988;6.314;2023-05-13T10:12:25;18.00;;;11.20;;
3949;SDS011;53057;50.988;6.314;2023-05-13T10:14:52;16.27;;;11.60;;
3949;SDS011;53057;50.988;6.314;2023-05-13T10:17:20;15.47;;;12.13;;
3949;SDS011;53057;50.988;6.314;2023-05-13T10:19:48;16.23;;;11.60;;
3949;SDS011;53057;50.988;6.314;2023-05-13T10:22:15;15.80;;;11.37;;
3949;SDS011;53057;50.988;6.314;2023-05-13T10:24:45;15.00;;;10.00;;
3949;SDS011;53057;50.988;6.314;2023-05-13T10:27:12;12.40;;;11.10;;
3949;SDS011;53057;50.988;6.314;2023-05-13T10:29:39;21.40;;;13.07;;
3949;SDS011;53057;50.988;6.314;2023-05-13T10:32:07;16.47;;;12.10;;
3949;SDS011;53057;50.988;6.314;2023-05-13T10:34:34;17.53;;;13.50;;
3949;SDS011;53057;50.988;6.314;2023-05-13T10:37:08;21.63;;;11.80;;
3949;SDS011;53057;50.988;6.314;2023-05-13T10:42:28;15.60;;;11.00;;
3949;SDS011;53057;50.988;6.314;2023-05-13T10:45:01;11.20;;;9.93;;
3949;SDS011;53057;50.988;6.314;2023-05-13T10:47:31;14.73;;;11.30;;
3949;SDS011;53057;50.988;6.314;2023-05-13T10:49:59;11.33;;;9.77;;
3949;SDS011;53057;50.988;6.314;2023-05-13T10:52:41;14.10;;;10.37;;
3949;SDS011;53057;50.988;6.314;2023-05-13T10:55:13;11.50;;;9.70;;
3949;SDS011;53057;50.988;6.314;2023-05-13T10:57:40;13.57;;;9.90;;
3949;SDS011;53057;50.988;6.314;2023-05-13T11:00:14;11.90;;;9.63;;
3949;SDS011;53057;50.988;6.314;2023-05-13T11:02:41;11.27;;;9.63;;
3949;SDS011;53057;50.988;6.314;2023-05-13T11:05:08;26.50;;;13.07;;
3949;SDS011;53057;50.988;6.314;2023-05-13T11:07:38;11.07;;;9.87;;
3949;SDS011;53057;50.988;6.314;2023-05-13T11:10:22;13.80;;;8.27;;
3949;SDS011;53057;50.988;6.314;2023-05-13T11:13:06;8.77;;;7.00;;
3949;SDS011;53057;50.988;6.314;2023-05-13T11:18:29;17.17;;;6.77;;
3949;SDS011;53057;50.988;6.314;2023-05-13T11:21:00;8.83;;;6.20;;
3949;SDS011;53057;50.988;6.314;2023-05-13T11:23:31;8.20;;;5.60;;
3949;SDS011;53057;50.988;6.314;2023-05-13T11:26:08;9.17;;;4.90;;
3949;SDS011;53057;50.988;6.314;2023-05-13T11:31:24;8.60;;;5.53;;
3949;SDS011;53057;50.988;6.314;2023-05-13T11:34:07;7.67;;;5.33;;
3949;SDS011;53057;50.988;6.314;2023-05-13T11:36:38;5.90;;;4.70;;
3949;SDS011;53057;50.988;6.314;2023-05-13T11:39:09;7.97;;;4.87;;
3949;SDS011;53057;50.988;6.314;2023-05-13T11:41:40;7.60;;;5.27;;
3949;SDS011;53057;50.988;6.314;2023-05-13T11:44:07;7.27;;;5.57;;
3949;SDS011;53057;50.988;6.314;2023-05-13T11:46:33;11.00;;;5.00;;
3949;SDS011;53057;50.988;6.314;2023-05-13T11:49:00;6.73;;;4.67;;
3949;SDS011;53057;50.988;6.314;2023-05-13T11:51:27;8.83;;;4.97;;
3949;SDS011;53057;50.988;6.314;2023-05-13T11:54:00;5.10;;;4.07;;
3949;SDS011;53057;50.988;6.314;2023-05-13T11:56:28;6.27;;;4.87;;
3949;SDS011;53057;50.988;6.314;2023-05-13T11:58:55;7.00;;;5.10;;
3949;SDS011;53057;50.988;6.314;2023-05-13T12:01:22;6.20;;;4.33;;
3949;SDS011;53057;50.988;6.314;2023-05-13T12:03:49;5.90;;;4.37;;
3949;SDS011;53057;50.988;6.314;2023-05-13T12:06:16;7.07;;;4.70;;
3949;SDS011;53057;50.988;6.314;2023-05-13T12:08:43;8.83;;;4.80;;
3949;SDS011;53057;50.988;6.314;2023-05-13T12:11:11;6.90;;;4.40;;
3949;SDS011;53057;50.988;6.314;2023-05-13T12:13:39;14.40;;;3.93;;
3949;SDS011;53057;50.988;6.314;2023-05-13T12:16:07;6.10;;;3.73;;
3949;SDS011;53057;50.988;6.314;2023-05-13T12:18:34;4.80;;;3.97;;
3949;SDS011;53057;50.988;6.314;2023-05-13T12:21:12;7.77;;;4.57;;
3949;SDS011;53057;50.988;6.314;2023-05-13T12:23:39;6.43;;;3.77;;
3949;SDS011;53057;50.988;6.314;2023-05-13T12:26:09;4.53;;;4.10;;
3949;SDS011;53057;50.988;6.314;2023-05-13T12:28:38;4.17;;;3.80;;
3949;SDS011;53057;50.988;6.314;2023-05-13T12:31:04;5.50;;;4.20;;
3949;SDS011;53057;50.988;6.314;2023-05-13T12:33:32;6.17;;;4.77;;
3949;SDS011;53057;50.988;6.314;2023-05-13T12:36:16;4.30;;;3.63;;
3949;SDS011;53057;50.988;6.314;2023-05-13T12:39:19;10.40;;;3.50;;
3949;SDS011;53057;50.988;6.314;2023-05-13T12:41:39;4.20;;;3.30;;
3949;SDS011;53057;50.988;6.314;2023-05-13T12:44:07;7.47;;;4.20;;
3949;SDS011;53057;50.988;6.314;2023-05-13T12:46:34;9.87;;;4.10;;
3949;SDS011;53057;50.988;6.314;2023-05-13T12:49:02;4.30;;;3.70;;
3949;SDS011;53057;50.988;6.314;2023-05-13T12:51:29;8.80;;;2.70;;
3949;SDS011;53057;50.988;6.314;2023-05-13T12:53:59;6.63;;;2.40;;
3949;SDS011;53057;50.988;6.314;2023-05-13T12:56:26;4.27;;;3.00;;
3949;SDS011;53057;50.988;6.314;2023-05-13T12:58:53;3.53;;;3.23;;
3949;SDS011;53057;50.988;6.314;2023-05-13T13:01:19;6.30;;;2.77;;
3949;SDS011;53057;50.988;6.314;2023-05-13T13:03:46;4.17;;;2.70;;
3949;SDS011;53057;50.988;6.314;2023-05-13T13:06:13;4.80;;;2.27;;
3949;SDS011;53057;50.988;6.314;2023-05-13T13:08:40;3.17;;;2.87;;
3949;SDS011;53057;50.988;6.314;2023-05-13T13:11:07;4.37;;;3.67;;
3949;SDS011;53057;50.988;6.314;2023-05-13T13:13:34;4.43;;;2.73;;
3949;SDS011;53057;50.988;6.314;2023-05-13T13:16:04;7.37;;;2.63;;
3949;SDS011;53057;50.988;6.314;2023-05-13T13:18:31;4.23;;;2.47;;
3949;SDS011;53057;50.988;6.314;2023-05-13T13:20:57;3.40;;;2.70;;
3949;SDS011;53057;50.988;6.314;2023-05-13T13:23:24;3.87;;;3.37;;
3949;SDS011;53057;50.988;6.314;2023-05-13T13:25:51;7.10;;;3.60;;
3949;SDS011;53057;50.988;6.314;2023-05-13T13:28:17;9.43;;;2.90;;
3949;SDS011;53057;50.988;6.314;2023-05-13T13:30:44;2.50;;;1.97;;
3949;SDS011;53057;50.988;6.314;2023-05-13T13:33:13;8.03;;;2.37;;
3949;SDS011;53057;50.988;6.314;2023-05-13T13:35:43;4.10;;;2.40;;
3949;SDS011;53057;50.988;6.314;2023-05-13T13:38:10;3.47;;;2.80;;
3949;SDS011;53057;50.988;6.314;2023-05-13T13:40:37;4.67;;;3.13;;
3949;SDS011;53057;50.988;6.314;2023-05-13T13:43:04;11.53;;;3.40;;
3949;SDS011;53057;50.988;6.314;2023-05-13T13:45:31;3.47;;;2.40;;
3949;SDS011;53057;50.988;6.314;2023-05-13T13:47:58;2.90;;;2.67;;
3949;SDS011;53057;50.988;6.314;2023-05-13T13:50:25;4.13;;;2.20;;
3949;SDS011;53057;50.988;6.314;2023-05-13T13:52:52;2.63;;;2.37;;
3949;SDS011;53057;50.988;6.314;2023-05-13T13:55:19;4.20;;;2.73;;
3949;SDS011;53057;50.988;6.314;2023-05-13T13:57:46;3.53;;;2.33;;
3949;SDS011;53057;50.988;6.314;2023-05-13T14:00:13;2.90;;;2.40;;
3949;SDS011;53057;50.988;6.314;2023-05-13T14:02:41;4.80;;;2.80;;
3949;SDS011;53057;50.988;6.314;2023-05-13T14:05:08;5.77;;;2.97;;
3949;SDS011;53057;50.988;6.314;2023-05-13T14:07:35;3.00;;;2.17;;
3949;SDS011;53057;50.988;6.314;2023-05-13T14:10:06;2.60;;;2.23;;
3949;SDS011;53057;50.988;6.314;2023-05-13T14:12:33;4.57;;;2.70;;
3949;SDS011;53057;50.988;6.314;2023-05-13T14:15:01;4.00;;;2.73;;
3949;SDS011;53057;50.988;6.314;2023-05-13T14:17:29;3.30;;;2.33;;
3949;SDS011;53057;50.988;6.314;2023-05-13T14:19:56;6.83;;;3.60;;
3949;SDS011;53057;50.988;6.314;2023-05-13T14:22:23;5.13;;;2.57;;
3949;SDS011;53057;50.988;6.314;2023-05-13T14:24:50;4.50;;;3.50;;
3949;SDS011;53057;50.988;6.314;2023-05-13T14:27:17;4.23;;;2.00;;
3949;SDS011;53057;50.988;6.314;2023-05-13T14:29:44;7.40;;;3.60;;
3949;SDS011;53057;50.988;6.314;2023-05-13T14:32:11;3.00;;;2.40;;
3949;SDS011;53057;50.988;6.314;2023-05-13T14:34:38;3.63;;;2.53;;
3949;SDS011;53057;50.988;6.314;2023-05-13T14:37:04;3.77;;;2.50;;
3949;SDS011;53057;50.988;6.314;2023-05-13T14:39:31;13.37;;;3.30;;
3949;SDS011;53057;50.988;6.314;2023-05-13T14:41:57;3.00;;;2.50;;
3949;SDS011;53057;50.988;6.314;2023-05-13T14:44:24;2.77;;;2.57;;
3949;SDS011;53057;50.988;6.314;2023-05-13T14:46:51;3.43;;;2.97;;
3949;SDS011;53057;50.988;6.314;2023-05-13T14:49:17;3.83;;;2.67;;
3949;SDS011;53057;50.988;6.314;2023-05-13T14:51:44;5.30;;;3.60;;
3949;SDS011;53057;50.988;6.314;2023-05-13T14:54:11;3.40;;;3.20;;
3949;SDS011;53057;50.988;6.314;2023-05-13T14:56:37;3.00;;;2.77;;
3949;SDS011;53057;50.988;6.314;2023-05-13T14:59:04;3.87;;;3.03;;
3949;SDS011;53057;50.988;6.314;2023-05-13T15:01:31;8.00;;;3.90;;